sensor_id;sensor_type;location;lat;lon;timestamp;P1;durP1;ratioP1;P2;durP2;ratioP2
6858;SDS011;3468;42.824;23.240;2024-01-10T00:02:22;2.77;;;1.53;;
6858;SDS011;3468;42.824;23.240;2024-01-10T00:04:49;3.03;;;1.50;;
6858;SDS011;3468;42.824;23.240;2024-01-10T00:07:17;2.70;;;1.70;;
6858;SDS011;3468;42.824;23.240;2024-01-10T00:09:43;3.17;;;1.67;;
6858;SDS011;3468;42.824;23.240;2024-01-10T00:12:11;2.57;;;1.43;;
6858;SDS011;3468;42.824;23.240;2024-01-10T00:14:37;2.20;;;1.10;;
6858;SDS011;3468;42.824;23.240;2024-01-10T00:17:04;1.17;;;0.87;;
6858;SDS011;3468;42.824;23.240;2024-01-10T00:19:31;1.13;;;1.03;;
6858;SDS011;3468;42.824;23.240;2024-01-10T00:21:57;3.63;;;1.30;;
6858;SDS011;3468;42.824;23.240;2024-01-10T00:24:26;3.43;;;1.43;;
6858;SDS011;3468;42.824;23.240;2024-01-10T00:26:52;1.83;;;1.20;;
6858;SDS011;3468;42.824;23.240;2024-01-10T00:29:19;3.13;;;1.53;;
6858;SDS011;3468;42.824;23.240;2024-01-10T00:31:46;2.83;;;1.57;;
6858;SDS011;3468;42.824;23.240;2024-01-10T00:34:13;1.70;;;1.23;;
6858;SDS011;3468;42.824;23.240;2024-01-10T00:36:40;1.53;;;1.40;;
6858;SDS011;3468;42.824;23.240;2024-01-10T00:39:06;3.27;;;1.83;;
6858;SDS011;3468;42.824;23.240;2024-01-10T00:41:34;2.47;;;1.57;;
6858;SDS011;3468;42.824;23.240;2024-01-10T00:44:01;2.10;;;1.10;;
6858;SDS011;3468;42.824;23.240;2024-01-10T00:46:28;1.90;;;1.10;;
6858;SDS011;3468;42.824;23.240;2024-01-10T00:48:55;4.07;;;1.60;;
6858;SDS011;3468;42.824;23.240;2024-01-10T00:51:21;1.90;;;1.23;;
6858;SDS011;3468;42.824;23.240;2024-01-10T00:53:48;3.17;;;1.53;;
6858;SDS011;3468;42.824;23.240;2024-01-10T00:56:15;1.30;;;1.20;;
6858;SDS011;3468;42.824;23.240;2024-01-10T00:58:43;1.07;;;0.93;;
6858;SDS011;3468;42.824;23.240;2024-01-10T01:01:09;2.77;;;1.00;;
6858;SDS011;3468;42.824;23.240;2024-01-10T01:03:36;1.47;;;1.20;;
6858;SDS011;3468;42.824;23.240;2024-01-10T01:06:03;3.63;;;1.17;;
6858;SDS011;3468;42.824;23.240;2024-01-10T01:08:30;1.33;;;0.97;;
6858;SDS011;3468;42.824;23.240;2024-01-10T01:10:57;2.43;;;1.43;;
6858;SDS011;3468;42.824;23.240;2024-01-10T01:13:23;1.10;;;1.00;;
6858;SDS011;3468;42.824;23.240;2024-01-10T01:15:51;2.13;;;0.90;;
6858;SDS011;3468;42.824;23.240;2024-01-10T01:18:18;1.33;;;0.90;;
6858;SDS011;3468;42.824;23.240;2024-01-10T01:20:45;1.43;;;0.80;;
6858;SDS011;3468;42.824;23.240;2024-01-10T01:23:13;2.13;;;1.30;;
6858;SDS011;3468;42.824;23.240;2024-01-10T01:25:40;0.83;;;0.80;;
6858;SDS011;3468;42.824;23.240;2024-01-10T01:28:07;2.67;;;1.20;;
6858;SDS011;3468;42.824;23.240;2024-01-10T01:30:34;1.17;;;0.93;;
6858;SDS011;3468;42.824;23.240;2024-01-10T01:33:02;2.43;;;1.10;;
6858;SDS011;3468;42.824;23.240;2024-01-10T01:35:29;0.60;;;0.60;;
6858;SDS011;3468;42.824;23.240;2024-01-10T01:37:56;1.27;;;1.00;;
6858;SDS011;3468;42.824;23.240;2024-01-10T01:40:23;1.10;;;1.00;;
6858;SDS011;3468;42.824;23.240;2024-01-10T01:42:50;0.97;;;0.70;;
6858;SDS011;3468;42.824;23.240;2024-01-10T01:45:16;1.37;;;0.90;;
6858;SDS011;3468;42.824;23.240;2024-01-10T01:47:43;1.10;;;0.90;;
6858;SDS011;3468;42.824;23.240;2024-01-10T01:50:12;1.60;;;0.90;;
6858;SDS011;3468;42.824;23.240;2024-01-10T01:52:38;1.60;;;1.03;;
6858;SDS011;3468;42.824;23.240;2024-01-10T01:55:06;0.80;;;0.47;;
6858;SDS011;3468;42.824;23.240;2024-01-10T01:57:34;0.50;;;0.50;;
6858;SDS011;3468;42.824;23.240;2024-01-10T02:00:01;1.10;;;0.97;;
6858;SDS011;3468;42.824;23.240;2024-01-10T02:02:29;1.10;;;1.00;;
6858;SDS011;3468;42.824;23.240;2024-01-10T02:04:56;1.20;;;0.77;;
6858;SDS011;3468;42.824;23.240;2024-01-10T02:07:25;0.67;;;0.63;;
6858;SDS011;3468;42.824;23.240;2024-01-10T02:09:53;0.67;;;0.67;;
6858;SDS011;3468;42.824;23.240;2024-01-10T02:12:19;2.77;;;1.17;;
6858;SDS011;3468;42.824;23.240;2024-01-10T02:14:46;2.60;;;0.90;;
6858;SDS011;3468;42.824;23.240;2024-01-10T02:17:13;2.73;;;1.10;;
6858;SDS011;3468;42.824;23.240;2024-01-10T02:19:41;1.13;;;0.80;;
6858;SDS011;3468;42.824;23.240;2024-01-10T02:22:08;1.00;;;0.90;;
6858;SDS011;3468;42.824;23.240;2024-01-10T02:24:40;1.30;;;0.90;;
6858;SDS011;3468;42.824;23.240;2024-01-10T02:27:08;0.60;;;0.60;;
6858;SDS011;3468;42.824;23.240;2024-01-10T02:29:34;1.57;;;1.00;;
6858;SDS011;3468;42.824;23.240;2024-01-10T02:32:01;2.37;;;0.80;;
6858;SDS011;3468;42.824;23.240;2024-01-10T02:34:29;2.17;;;1.30;;
6858;SDS011;3468;42.824;23.240;2024-01-10T02:36:56;0.73;;;0.73;;
6858;SDS011;3468;42.824;23.240;2024-01-10T02:39:24;1.50;;;0.90;;
6858;SDS011;3468;42.824;23.240;2024-01-10T02:41:51;1.87;;;0.90;;
6858;SDS011;3468;42.824;23.240;2024-01-10T02:44:19;4.10;;;0.70;;
6858;SDS011;3468;42.824;23.240;2024-01-10T02:46:48;4.53;;;0.87;;
6858;SDS011;3468;42.824;23.240;2024-01-10T02:49:14;1.47;;;0.77;;
6858;SDS011;3468;42.824;23.240;2024-01-10T02:51:43;1.30;;;1.20;;
6858;SDS011;3468;42.824;23.240;2024-01-10T02:54:10;2.13;;;0.90;;
6858;SDS011;3468;42.824;23.240;2024-01-10T02:56:37;0.60;;;0.57;;
6858;SDS011;3468;42.824;23.240;2024-01-10T02:59:03;0.97;;;0.70;;
6858;SDS011;3468;42.824;23.240;2024-01-10T03:01:31;0.70;;;0.70;;
6858;SDS011;3468;42.824;23.240;2024-01-10T03:03:58;0.90;;;0.70;;
6858;SDS011;3468;42.824;23.240;2024-01-10T03:06:25;1.10;;;0.77;;
6858;SDS011;3468;42.824;23.240;2024-01-10T03:08:52;1.27;;;0.70;;
6858;SDS011;3468;42.824;23.240;2024-01-10T03:11:18;0.97;;;0.83;;
6858;SDS011;3468;42.824;23.240;2024-01-10T03:13:45;0.87;;;0.80;;
6858;SDS011;3468;42.824;23.240;2024-01-10T03:16:13;0.97;;;0.87;;
6858;SDS011;3468;42.824;23.240;2024-01-10T03:18:42;5.50;;;1.17;;
6858;SDS011;3468;42.824;23.240;2024-01-10T03:21:09;2.70;;;1.57;;
6858;SDS011;3468;42.824;23.240;2024-01-10T03:23:35;5.27;;;1.93;;
6858;SDS011;3468;42.824;23.240;2024-01-10T03:26:02;4.37;;;2.17;;
6858;SDS011;3468;42.824;23.240;2024-01-10T03:28:28;3.73;;;1.30;;
6858;SDS011;3468;42.824;23.240;2024-01-10T03:30:55;1.30;;;1.10;;
6858;SDS011;3468;42.824;23.240;2024-01-10T03:33:22;2.23;;;1.37;;
6858;SDS011;3468;42.824;23.240;2024-01-10T03:35:50;2.37;;;1.63;;
6858;SDS011;3468;42.824;23.240;2024-01-10T03:38:17;3.10;;;1.90;;
6858;SDS011;3468;42.824;23.240;2024-01-10T03:40:44;4.47;;;2.53;;
6858;SDS011;3468;42.824;23.240;2024-01-10T03:43:11;5.67;;;2.50;;
6858;SDS011;3468;42.824;23.240;2024-01-10T03:45:38;3.03;;;1.77;;
6858;SDS011;3468;42.824;23.240;2024-01-10T03:48:05;7.37;;;2.23;;
6858;SDS011;3468;42.824;23.240;2024-01-10T03:50:33;5.53;;;1.53;;
6858;SDS011;3468;42.824;23.240;2024-01-10T03:53:02;5.27;;;2.50;;
6858;SDS011;3468;42.824;23.240;2024-01-10T03:55:29;5.57;;;2.73;;
6858;SDS011;3468;42.824;23.240;2024-01-10T03:57:56;2.63;;;1.80;;
6858;SDS011;3468;42.824;23.240;2024-01-10T04:00:23;3.90;;;2.20;;
6858;SDS011;3468;42.824;23.240;2024-01-10T04:02:50;5.07;;;2.63;;
6858;SDS011;3468;42.824;23.240;2024-01-10T04:05:16;6.77;;;3.40;;
6858;SDS011;3468;42.824;23.240;2024-01-10T04:07:44;12.33;;;2.90;;
6858;SDS011;3468;42.824;23.240;2024-01-10T04:10:12;6.17;;;3.30;;
6858;SDS011;3468;42.824;23.240;2024-01-10T04:12:40;7.30;;;3.23;;
6858;SDS011;3468;42.824;23.240;2024-01-10T04:15:07;4.37;;;2.20;;
6858;SDS011;3468;42.824;23.240;2024-01-10T04:17:34;3.50;;;2.27;;
6858;SDS011;3468;42.824;23.240;2024-01-10T04:20:01;3.50;;;2.30;;
6858;SDS011;3468;42.824;23.240;2024-01-10T04:22:28;8.13;;;2.43;;
6858;SDS011;3468;42.824;23.240;2024-01-10T04:24:57;7.23;;;2.30;;
6858;SDS011;3468;42.824;23.240;2024-01-10T04:27:26;3.13;;;2.17;;
6858;SDS011;3468;42.824;23.240;2024-01-10T04:29:53;6.80;;;2.00;;
6858;SDS011;3468;42.824;23.240;2024-01-10T04:32:20;10.50;;;3.97;;
6858;SDS011;3468;42.824;23.240;2024-01-10T04:34:47;14.50;;;6.03;;
6858;SDS011;3468;42.824;23.240;2024-01-10T04:37:14;22.13;;;8.73;;
6858;SDS011;3468;42.824;23.240;2024-01-10T04:39:40;16.97;;;5.77;;
6858;SDS011;3468;42.824;23.240;2024-01-10T04:42:08;11.17;;;5.43;;
6858;SDS011;3468;42.824;23.240;2024-01-10T04:44:36;11.87;;;6.20;;
6858;SDS011;3468;42.824;23.240;2024-01-10T04:47:03;13.70;;;5.43;;
6858;SDS011;3468;42.824;23.240;2024-01-10T04:49:30;8.57;;;3.80;;
6858;SDS011;3468;42.824;23.240;2024-01-10T04:51:57;5.03;;;3.13;;
6858;SDS011;3468;42.824;23.240;2024-01-10T04:54:24;4.77;;;3.10;;
6858;SDS011;3468;42.824;23.240;2024-01-10T04:56:50;6.03;;;3.30;;
6858;SDS011;3468;42.824;23.240;2024-01-10T04:59:17;22.40;;;8.53;;
6858;SDS011;3468;42.824;23.240;2024-01-10T05:01:45;11.47;;;3.90;;
6858;SDS011;3468;42.824;23.240;2024-01-10T05:04:12;4.93;;;2.20;;
6858;SDS011;3468;42.824;23.240;2024-01-10T05:06:38;9.20;;;5.50;;
6858;SDS011;3468;42.824;23.240;2024-01-10T05:09:06;5.33;;;3.93;;
6858;SDS011;3468;42.824;23.240;2024-01-10T05:11:33;6.13;;;3.13;;
6858;SDS011;3468;42.824;23.240;2024-01-10T05:14:00;6.33;;;3.47;;
6858;SDS011;3468;42.824;23.240;2024-01-10T05:16:28;8.17;;;3.93;;
6858;SDS011;3468;42.824;23.240;2024-01-10T05:18:56;8.67;;;4.10;;
6858;SDS011;3468;42.824;23.240;2024-01-10T05:21:23;5.77;;;3.10;;
6858;SDS011;3468;42.824;23.240;2024-01-10T05:23:51;3.00;;;2.60;;
6858;SDS011;3468;42.824;23.240;2024-01-10T05:26:18;10.17;;;4.83;;
6858;SDS011;3468;42.824;23.240;2024-01-10T05:28:45;8.67;;;3.37;;
6858;SDS011;3468;42.824;23.240;2024-01-10T05:31:11;5.80;;;3.57;;
6858;SDS011;3468;42.824;23.240;2024-01-10T05:33:38;10.97;;;5.23;;
6858;SDS011;3468;42.824;23.240;2024-01-10T05:36:08;6.93;;;3.90;;
6858;SDS011;3468;42.824;23.240;2024-01-10T05:38:36;9.87;;;3.30;;
6858;SDS011;3468;42.824;23.240;2024-01-10T05:41:03;5.73;;;3.20;;
6858;SDS011;3468;42.824;23.240;2024-01-10T05:43:30;11.33;;;3.73;;
6858;SDS011;3468;42.824;23.240;2024-01-10T05:45:57;7.63;;;3.33;;
6858;SDS011;3468;42.824;23.240;2024-01-10T05:48:25;10.43;;;4.00;;
6858;SDS011;3468;42.824;23.240;2024-01-10T05:50:52;5.53;;;3.40;;
6858;SDS011;3468;42.824;23.240;2024-01-10T05:53:20;11.73;;;4.30;;
6858;SDS011;3468;42.824;23.240;2024-01-10T05:55:46;11.40;;;6.00;;
6858;SDS011;3468;42.824;23.240;2024-01-10T05:58:13;53.70;;;17.37;;
6858;SDS011;3468;42.824;23.240;2024-01-10T06:00:40;37.43;;;12.43;;
6858;SDS011;3468;42.824;23.240;2024-01-10T06:03:07;32.13;;;12.77;;
6858;SDS011;3468;42.824;23.240;2024-01-10T06:05:34;25.17;;;10.00;;
6858;SDS011;3468;42.824;23.240;2024-01-10T06:08:01;14.50;;;6.07;;
6858;SDS011;3468;42.824;23.240;2024-01-10T06:10:30;9.87;;;3.53;;
6858;SDS011;3468;42.824;23.240;2024-01-10T06:12:57;16.03;;;4.20;;
6858;SDS011;3468;42.824;23.240;2024-01-10T06:15:24;23.27;;;7.50;;
6858;SDS011;3468;42.824;23.240;2024-01-10T06:17:50;20.13;;;6.20;;
6858;SDS011;3468;42.824;23.240;2024-01-10T06:20:17;18.77;;;4.90;;
6858;SDS011;3468;42.824;23.240;2024-01-10T06:22:44;15.70;;;4.30;;
6858;SDS011;3468;42.824;23.240;2024-01-10T06:25:11;8.80;;;3.73;;
6858;SDS011;3468;42.824;23.240;2024-01-10T06:27:39;10.20;;;4.43;;
6858;SDS011;3468;42.824;23.240;2024-01-10T06:30:07;11.37;;;4.50;;
6858;SDS011;3468;42.824;23.240;2024-01-10T06:32:34;28.20;;;9.90;;
6858;SDS011;3468;42.824;23.240;2024-01-10T06:35:01;12.27;;;4.67;;
6858;SDS011;3468;42.824;23.240;2024-01-10T06:37:29;7.90;;;3.90;;
6858;SDS011;3468;42.824;23.240;2024-01-10T06:39:56;8.87;;;3.60;;
6858;SDS011;3468;42.824;23.240;2024-01-10T06:42:23;10.67;;;4.30;;
6858;SDS011;3468;42.824;23.240;2024-01-10T06:44:52;19.20;;;7.67;;
6858;SDS011;3468;42.824;23.240;2024-01-10T06:47:19;36.70;;;13.53;;
6858;SDS011;3468;42.824;23.240;2024-01-10T06:49:46;42.50;;;14.37;;
6858;SDS011;3468;42.824;23.240;2024-01-10T06:52:13;76.47;;;20.13;;
6858;SDS011;3468;42.824;23.240;2024-01-10T06:54:39;77.20;;;19.90;;
6858;SDS011;3468;42.824;23.240;2024-01-10T06:57:06;39.50;;;11.47;;
6858;SDS011;3468;42.824;23.240;2024-01-10T06:59:33;21.63;;;7.13;;
6858;SDS011;3468;42.824;23.240;2024-01-10T07:02:01;12.37;;;5.27;;
6858;SDS011;3468;42.824;23.240;2024-01-10T07:04:28;23.27;;;8.60;;
6858;SDS011;3468;42.824;23.240;2024-01-10T07:06:55;36.60;;;11.57;;
6858;SDS011;3468;42.824;23.240;2024-01-10T07:09:21;15.03;;;5.10;;
6858;SDS011;3468;42.824;23.240;2024-01-10T07:11:48;11.70;;;3.40;;
6858;SDS011;3468;42.824;23.240;2024-01-10T07:14:15;15.70;;;4.00;;
6858;SDS011;3468;42.824;23.240;2024-01-10T07:16:42;13.53;;;4.50;;
6858;SDS011;3468;42.824;23.240;2024-01-10T07:19:12;27.77;;;7.97;;
6858;SDS011;3468;42.824;23.240;2024-01-10T07:21:39;28.00;;;12.17;;
6858;SDS011;3468;42.824;23.240;2024-01-10T07:24:06;40.10;;;14.17;;
6858;SDS011;3468;42.824;23.240;2024-01-10T07:26:34;49.20;;;17.63;;
6858;SDS011;3468;42.824;23.240;2024-01-10T07:29:01;22.97;;;10.97;;
6858;SDS011;3468;42.824;23.240;2024-01-10T07:31:28;10.83;;;5.37;;
6858;SDS011;3468;42.824;23.240;2024-01-10T07:33:55;10.13;;;5.40;;
6858;SDS011;3468;42.824;23.240;2024-01-10T07:36:23;13.80;;;6.43;;
6858;SDS011;3468;42.824;23.240;2024-01-10T07:38:51;22.07;;;9.57;;
6858;SDS011;3468;42.824;23.240;2024-01-10T07:41:18;28.80;;;12.20;;
6858;SDS011;3468;42.824;23.240;2024-01-10T07:43:45;29.77;;;11.70;;
6858;SDS011;3468;42.824;23.240;2024-01-10T07:46:12;42.00;;;12.90;;
6858;SDS011;3468;42.824;23.240;2024-01-10T07:48:38;28.23;;;12.40;;
6858;SDS011;3468;42.824;23.240;2024-01-10T07:51:05;23.03;;;10.33;;
6858;SDS011;3468;42.824;23.240;2024-01-10T07:53:34;31.27;;;10.87;;
6858;SDS011;3468;42.824;23.240;2024-01-10T07:56:01;38.00;;;11.73;;
6858;SDS011;3468;42.824;23.240;2024-01-10T07:58:28;34.23;;;12.30;;
6858;SDS011;3468;42.824;23.240;2024-01-10T08:00:54;24.93;;;11.13;;
6858;SDS011;3468;42.824;23.240;2024-01-10T08:03:21;29.93;;;11.87;;
6858;SDS011;3468;42.824;23.240;2024-01-10T08:05:48;31.47;;;13.03;;
6858;SDS011;3468;42.824;23.240;2024-01-10T08:08:14;26.83;;;10.53;;
6858;SDS011;3468;42.824;23.240;2024-01-10T08:10:43;30.60;;;10.13;;
6858;SDS011;3468;42.824;23.240;2024-01-10T08:13:10;22.20;;;9.20;;
6858;SDS011;3468;42.824;23.240;2024-01-10T08:15:37;18.30;;;8.60;;
6858;SDS011;3468;42.824;23.240;2024-01-10T08:18:03;25.90;;;9.77;;
6858;SDS011;3468;42.824;23.240;2024-01-10T08:20:32;17.33;;;7.83;;
6858;SDS011;3468;42.824;23.240;2024-01-10T08:22:59;13.63;;;6.27;;
6858;SDS011;3468;42.824;23.240;2024-01-10T08:25:26;17.87;;;6.63;;
6858;SDS011;3468;42.824;23.240;2024-01-10T08:27:54;16.37;;;6.27;;
6858;SDS011;3468;42.824;23.240;2024-01-10T08:30:22;15.53;;;5.73;;
6858;SDS011;3468;42.824;23.240;2024-01-10T08:32:49;12.60;;;6.30;;
6858;SDS011;3468;42.824;23.240;2024-01-10T08:35:16;15.40;;;6.40;;
6858;SDS011;3468;42.824;23.240;2024-01-10T08:37:44;13.50;;;6.27;;
6858;SDS011;3468;42.824;23.240;2024-01-10T08:40:11;11.33;;;5.47;;
6858;SDS011;3468;42.824;23.240;2024-01-10T08:42:40;13.33;;;5.33;;
6858;SDS011;3468;42.824;23.240;2024-01-10T08:45:08;10.43;;;5.30;;
6858;SDS011;3468;42.824;23.240;2024-01-10T08:47:36;13.13;;;6.37;;
6858;SDS011;3468;42.824;23.240;2024-01-10T08:50:04;13.90;;;6.67;;
6858;SDS011;3468;42.824;23.240;2024-01-10T08:52:33;14.93;;;6.50;;
6858;SDS011;3468;42.824;23.240;2024-01-10T08:55:02;14.47;;;7.07;;
6858;SDS011;3468;42.824;23.240;2024-01-10T08:57:30;18.83;;;6.67;;
6858;SDS011;3468;42.824;23.240;2024-01-10T08:59:57;13.60;;;6.70;;
6858;SDS011;3468;42.824;23.240;2024-01-10T09:02:25;16.87;;;5.93;;
6858;SDS011;3468;42.824;23.240;2024-01-10T09:04:52;10.27;;;4.73;;
6858;SDS011;3468;42.824;23.240;2024-01-10T09:07:19;11.07;;;5.43;;
6858;SDS011;3468;42.824;23.240;2024-01-10T09:09:46;9.40;;;3.83;;
6858;SDS011;3468;42.824;23.240;2024-01-10T09:12:13;8.63;;;4.40;;
6858;SDS011;3468;42.824;23.240;2024-01-10T09:14:40;6.67;;;2.53;;
6858;SDS011;3468;42.824;23.240;2024-01-10T09:17:07;3.93;;;2.03;;
6858;SDS011;3468;42.824;23.240;2024-01-10T09:19:35;6.17;;;2.57;;
6858;SDS011;3468;42.824;23.240;2024-01-10T09:22:02;8.83;;;2.50;;
6858;SDS011;3468;42.824;23.240;2024-01-10T09:24:29;5.30;;;3.07;;
6858;SDS011;3468;42.824;23.240;2024-01-10T09:26:55;7.20;;;2.90;;
6858;SDS011;3468;42.824;23.240;2024-01-10T09:29:23;7.57;;;3.50;;
6858;SDS011;3468;42.824;23.240;2024-01-10T09:31:50;6.03;;;3.13;;
6858;SDS011;3468;42.824;23.240;2024-01-10T09:34:17;8.67;;;3.03;;
6858;SDS011;3468;42.824;23.240;2024-01-10T09:36:45;5.27;;;2.80;;
6858;SDS011;3468;42.824;23.240;2024-01-10T09:39:12;6.30;;;2.57;;
6858;SDS011;3468;42.824;23.240;2024-01-10T09:41:40;9.67;;;3.27;;
6858;SDS011;3468;42.824;23.240;2024-01-10T09:44:12;7.43;;;3.00;;
6858;SDS011;3468;42.824;23.240;2024-01-10T09:46:40;4.47;;;2.60;;
6858;SDS011;3468;42.824;23.240;2024-01-10T09:49:10;9.33;;;3.30;;
6858;SDS011;3468;42.824;23.240;2024-01-10T09:51:36;6.30;;;2.43;;
6858;SDS011;3468;42.824;23.240;2024-01-10T09:54:05;4.23;;;2.47;;
6858;SDS011;3468;42.824;23.240;2024-01-10T09:56:32;6.47;;;2.43;;
6858;SDS011;3468;42.824;23.240;2024-01-10T09:58:59;6.67;;;2.43;;
6858;SDS011;3468;42.824;23.240;2024-01-10T10:01:29;3.63;;;2.23;;
6858;SDS011;3468;42.824;23.240;2024-01-10T10:03:57;6.23;;;2.53;;
6858;SDS011;3468;42.824;23.240;2024-01-10T10:06:25;2.07;;;1.43;;
6858;SDS011;3468;42.824;23.240;2024-01-10T10:08:52;6.17;;;1.70;;
6858;SDS011;3468;42.824;23.240;2024-01-10T10:11:20;2.50;;;1.70;;
6858;SDS011;3468;42.824;23.240;2024-01-10T10:13:46;1.37;;;1.00;;
6858;SDS011;3468;42.824;23.240;2024-01-10T10:16:13;8.13;;;1.53;;
6858;SDS011;3468;42.824;23.240;2024-01-10T10:18:50;3.37;;;1.70;;
6858;SDS011;3468;42.824;23.240;2024-01-10T10:21:18;1.30;;;1.00;;
6858;SDS011;3468;42.824;23.240;2024-01-10T10:23:56;1.43;;;1.20;;
6858;SDS011;3468;42.824;23.240;2024-01-10T10:26:26;7.23;;;1.50;;
6858;SDS011;3468;42.824;23.240;2024-01-10T10:28:54;1.83;;;1.17;;
6858;SDS011;3468;42.824;23.240;2024-01-10T10:31:22;2.60;;;1.37;;
6858;SDS011;3468;42.824;23.240;2024-01-10T10:33:50;10.43;;;4.87;;
6858;SDS011;3468;42.824;23.240;2024-01-10T10:36:17;51.83;;;21.30;;
6858;SDS011;3468;42.824;23.240;2024-01-10T10:38:44;4.07;;;2.70;;
6858;SDS011;3468;42.824;23.240;2024-01-10T10:41:12;4.27;;;1.77;;
6858;SDS011;3468;42.824;23.240;2024-01-10T10:43:41;6.38;;;1.92;;
6858;SDS011;3468;42.824;23.240;2024-01-10T10:46:08;3.80;;;1.90;;
6858;SDS011;3468;42.824;23.240;2024-01-10T10:48:37;4.90;;;1.77;;
6858;SDS011;3468;42.824;23.240;2024-01-10T10:51:05;4.77;;;2.53;;
6858;SDS011;3468;42.824;23.240;2024-01-10T10:53:34;3.33;;;1.80;;
6858;SDS011;3468;42.824;23.240;2024-01-10T10:56:02;3.20;;;2.00;;
6858;SDS011;3468;42.824;23.240;2024-01-10T10:58:34;1.87;;;1.40;;
6858;SDS011;3468;42.824;23.240;2024-01-10T11:01:07;5.33;;;2.00;;
6858;SDS011;3468;42.824;23.240;2024-01-10T11:03:34;4.80;;;1.83;;
6858;SDS011;3468;42.824;23.240;2024-01-10T11:06:02;2.43;;;1.63;;
6858;SDS011;3468;42.824;23.240;2024-01-10T11:08:31;3.57;;;2.00;;
6858;SDS011;3468;42.824;23.240;2024-01-10T11:11:02;9.10;;;2.17;;
6858;SDS011;3468;42.824;23.240;2024-01-10T11:13:41;2.93;;;1.90;;
6858;SDS011;3468;42.824;23.240;2024-01-10T11:19:24;4.13;;;2.07;;
6858;SDS011;3468;42.824;23.240;2024-01-10T11:22:11;4.27;;;2.13;;
6858;SDS011;3468;42.824;23.240;2024-01-10T11:24:48;5.83;;;2.20;;
6858;SDS011;3468;42.824;23.240;2024-01-10T11:27:16;4.90;;;2.40;;
6858;SDS011;3468;42.824;23.240;2024-01-10T11:29:43;4.63;;;2.13;;
6858;SDS011;3468;42.824;23.240;2024-01-10T11:32:14;5.23;;;2.53;;
6858;SDS011;3468;42.824;23.240;2024-01-10T11:34:51;4.10;;;2.53;;
6858;SDS011;3468;42.824;23.240;2024-01-10T11:37:22;4.20;;;2.53;;
6858;SDS011;3468;42.824;23.240;2024-01-10T11:39:50;4.83;;;2.43;;
6858;SDS011;3468;42.824;23.240;2024-01-10T11:42:21;3.40;;;2.30;;
6858;SDS011;3468;42.824;23.240;2024-01-10T11:44:50;4.87;;;2.43;;
6858;SDS011;3468;42.824;23.240;2024-01-10T11:47:20;4.73;;;2.50;;
6858;SDS011;3468;42.824;23.240;2024-01-10T11:49:53;5.30;;;2.30;;
6858;SDS011;3468;42.824;23.240;2024-01-10T11:52:21;4.20;;;2.63;;
6858;SDS011;3468;42.824;23.240;2024-01-10T11:54:49;7.57;;;2.63;;
6858;SDS011;3468;42.824;23.240;2024-01-10T11:57:20;4.33;;;2.47;;
6858;SDS011;3468;42.824;23.240;2024-01-10T11:59:48;5.43;;;2.47;;
6858;SDS011;3468;42.824;23.240;2024-01-10T12:02:17;5.23;;;2.60;;
6858;SDS011;3468;42.824;23.240;2024-01-10T12:04:46;5.07;;;2.67;;
6858;SDS011;3468;42.824;23.240;2024-01-10T12:07:13;5.53;;;2.33;;
6858;SDS011;3468;42.824;23.240;2024-01-10T12:09:40;4.20;;;2.63;;
6858;SDS011;3468;42.824;23.240;2024-01-10T12:12:08;8.47;;;2.77;;
6858;SDS011;3468;42.824;23.240;2024-01-10T12:14:36;6.13;;;2.73;;
6858;SDS011;3468;42.824;23.240;2024-01-10T12:17:03;5.30;;;2.57;;
6858;SDS011;3468;42.824;23.240;2024-01-10T12:19:33;5.00;;;2.57;;
6858;SDS011;3468;42.824;23.240;2024-01-10T12:22:01;6.17;;;2.80;;
6858;SDS011;3468;42.824;23.240;2024-01-10T12:24:28;4.80;;;3.20;;
6858;SDS011;3468;42.824;23.240;2024-01-10T12:26:55;9.13;;;2.97;;
6858;SDS011;3468;42.824;23.240;2024-01-10T12:29:22;8.30;;;3.53;;
6858;SDS011;3468;42.824;23.240;2024-01-10T12:31:50;5.83;;;3.07;;
6858;SDS011;3468;42.824;23.240;2024-01-10T12:34:17;9.83;;;3.87;;
6858;SDS011;3468;42.824;23.240;2024-01-10T12:36:44;6.83;;;3.40;;
6858;SDS011;3468;42.824;23.240;2024-01-10T12:39:13;5.00;;;2.80;;
6858;SDS011;3468;42.824;23.240;2024-01-10T12:41:40;6.47;;;3.30;;
6858;SDS011;3468;42.824;23.240;2024-01-10T12:44:09;5.43;;;2.77;;
6858;SDS011;3468;42.824;23.240;2024-01-10T12:46:48;4.83;;;3.27;;
6858;SDS011;3468;42.824;23.240;2024-01-10T12:49:15;9.50;;;3.50;;
6858;SDS011;3468;42.824;23.240;2024-01-10T12:51:42;6.63;;;3.60;;
6858;SDS011;3468;42.824;23.240;2024-01-10T12:54:09;8.83;;;4.17;;
6858;SDS011;3468;42.824;23.240;2024-01-10T12:56:37;7.43;;;3.90;;
6858;SDS011;3468;42.824;23.240;2024-01-10T12:59:04;8.77;;;4.10;;
6858;SDS011;3468;42.824;23.240;2024-01-10T13:01:31;15.93;;;5.40;;
6858;SDS011;3468;42.824;23.240;2024-01-10T13:03:57;15.30;;;4.67;;
6858;SDS011;3468;42.824;23.240;2024-01-10T13:06:24;9.20;;;4.70;;
6858;SDS011;3468;42.824;23.240;2024-01-10T13:08:51;12.00;;;4.30;;
6858;SDS011;3468;42.824;23.240;2024-01-10T13:11:19;10.10;;;6.47;;
6858;SDS011;3468;42.824;23.240;2024-01-10T13:13:47;10.90;;;6.43;;
6858;SDS011;3468;42.824;23.240;2024-01-10T13:16:15;12.00;;;4.80;;
6858;SDS011;3468;42.824;23.240;2024-01-10T13:18:42;8.97;;;4.43;;
6858;SDS011;3468;42.824;23.240;2024-01-10T13:21:09;8.47;;;4.00;;
6858;SDS011;3468;42.824;23.240;2024-01-10T13:23:35;9.67;;;4.53;;
6858;SDS011;3468;42.824;23.240;2024-01-10T13:26:02;8.67;;;4.30;;
6858;SDS011;3468;42.824;23.240;2024-01-10T13:28:29;10.03;;;4.40;;
6858;SDS011;3468;42.824;23.240;2024-01-10T13:30:57;8.67;;;4.67;;
6858;SDS011;3468;42.824;23.240;2024-01-10T13:33:24;11.00;;;4.83;;
6858;SDS011;3468;42.824;23.240;2024-01-10T13:35:51;9.37;;;4.00;;
6858;SDS011;3468;42.824;23.240;2024-01-10T13:38:18;7.07;;;3.77;;
6858;SDS011;3468;42.824;23.240;2024-01-10T13:40:45;10.30;;;4.30;;
6858;SDS011;3468;42.824;23.240;2024-01-10T13:43:12;7.40;;;3.93;;
6858;SDS011;3468;42.824;23.240;2024-01-10T13:45:40;8.63;;;3.57;;
6858;SDS011;3468;42.824;23.240;2024-01-10T13:48:08;6.20;;;3.77;;
6858;SDS011;3468;42.824;23.240;2024-01-10T13:50:35;6.83;;;3.40;;
6858;SDS011;3468;42.824;23.240;2024-01-10T13:53:02;9.10;;;4.13;;
6858;SDS011;3468;42.824;23.240;2024-01-10T13:55:29;9.93;;;4.17;;
6858;SDS011;3468;42.824;23.240;2024-01-10T13:57:56;11.87;;;4.80;;
6858;SDS011;3468;42.824;23.240;2024-01-10T14:00:23;10.73;;;5.20;;
6858;SDS011;3468;42.824;23.240;2024-01-10T14:02:50;13.07;;;4.97;;
6858;SDS011;3468;42.824;23.240;2024-01-10T14:05:21;15.13;;;5.13;;
6858;SDS011;3468;42.824;23.240;2024-01-10T14:07:49;9.87;;;4.50;;
6858;SDS011;3468;42.824;23.240;2024-01-10T14:10:15;8.70;;;4.80;;
6858;SDS011;3468;42.824;23.240;2024-01-10T14:12:42;15.93;;;5.10;;
6858;SDS011;3468;42.824;23.240;2024-01-10T14:15:09;10.50;;;5.83;;
6858;SDS011;3468;42.824;23.240;2024-01-10T14:17:36;14.17;;;5.17;;
6858;SDS011;3468;42.824;23.240;2024-01-10T14:20:03;8.97;;;4.17;;
6858;SDS011;3468;42.824;23.240;2024-01-10T14:22:35;11.63;;;4.20;;
6858;SDS011;3468;42.824;23.240;2024-01-10T14:25:02;7.27;;;4.40;;
6858;SDS011;3468;42.824;23.240;2024-01-10T14:27:30;14.47;;;4.93;;
6858;SDS011;3468;42.824;23.240;2024-01-10T14:29:57;9.23;;;4.73;;
6858;SDS011;3468;42.824;23.240;2024-01-10T14:32:25;10.80;;;4.27;;
6858;SDS011;3468;42.824;23.240;2024-01-10T14:34:52;10.70;;;4.60;;
6858;SDS011;3468;42.824;23.240;2024-01-10T14:37:18;8.63;;;3.83;;
6858;SDS011;3468;42.824;23.240;2024-01-10T14:39:48;9.10;;;3.60;;
6858;SDS011;3468;42.824;23.240;2024-01-10T14:42:16;7.17;;;3.40;;
6858;SDS011;3468;42.824;23.240;2024-01-10T14:44:43;7.93;;;3.70;;
6858;SDS011;3468;42.824;23.240;2024-01-10T14:47:10;8.20;;;3.20;;
6858;SDS011;3468;42.824;23.240;2024-01-10T14:49:37;7.63;;;3.00;;
6858;SDS011;3468;42.824;23.240;2024-01-10T14:52:04;6.73;;;3.47;;
6858;SDS011;3468;42.824;23.240;2024-01-10T14:54:31;4.20;;;2.97;;
6858;SDS011;3468;42.824;23.240;2024-01-10T14:56:59;5.17;;;3.30;;
6858;SDS011;3468;42.824;23.240;2024-01-10T14:59:26;6.13;;;2.90;;
6858;SDS011;3468;42.824;23.240;2024-01-10T15:01:53;7.10;;;2.83;;